sensor_id;sensor_type;location;lat;lon;timestamp;P1;durP1;ratioP1;P2;durP2;ratioP2
70169;SDS011;57543;45.442;9.212;2023-06-10T00:02:34;8.23;;;4.63;;
70169;SDS011;57543;45.442;9.212;2023-06-10T00:05:37;7.53;;;4.20;;
70169;SDS011;57543;45.442;9.212;2023-06-10T00:08:44;7.03;;;3.85;;
70169;SDS011;57543;45.442;9.212;2023-06-10T00:11:50;7.93;;;4.20;;
70169;SDS011;57543;45.442;9.212;2023-06-10T00:14:53;7.35;;;4.30;;
70169;SDS011;57543;45.442;9.212;2023-06-10T00:17:58;7.13;;;3.83;;
70169;SDS011;57543;45.442;9.212;2023-06-10T00:21:01;7.95;;;4.43;;
70169;SDS011;57543;45.442;9.212;2023-06-10T00:24:07;6.68;;;4.15;;
70169;SDS011;57543;45.442;9.212;2023-06-10T00:27:20;6.20;;;3.77;;
70169;SDS011;57543;45.442;9.212;2023-06-10T00:30:24;6.05;;;3.75;;
70169;SDS011;57543;45.442;9.212;2023-06-10T00:33:28;7.03;;;4.22;;
70169;SDS011;57543;45.442;9.212;2023-06-10T00:36:33;6.07;;;3.63;;
70169;SDS011;57543;45.442;9.212;2023-06-10T00:39:37;6.90;;;3.42;;
70169;SDS011;57543;45.442;9.212;2023-06-10T00:42:41;7.87;;;4.10;;
70169;SDS011;57543;45.442;9.212;2023-06-10T00:45:45;8.50;;;3.72;;
70169;SDS011;57543;45.442;9.212;2023-06-10T00:48:48;7.40;;;3.53;;
70169;SDS011;57543;45.442;9.212;2023-06-10T00:51:52;6.32;;;3.58;;
70169;SDS011;57543;45.442;9.212;2023-06-10T00:54:56;8.70;;;3.63;;
70169;SDS011;57543;45.442;9.212;2023-06-10T00:58:00;6.33;;;3.40;;
70169;SDS011;57543;45.442;9.212;2023-06-10T01:01:04;5.95;;;3.30;;
70169;SDS011;57543;45.442;9.212;2023-06-10T01:04:08;6.85;;;3.13;;
70169;SDS011;57543;45.442;9.212;2023-06-10T01:07:17;6.13;;;3.30;;
70169;SDS011;57543;45.442;9.212;2023-06-10T01:13:44;6.33;;;3.20;;
70169;SDS011;57543;45.442;9.212;2023-06-10T01:16:49;8.70;;;3.30;;
70169;SDS011;57543;45.442;9.212;2023-06-10T01:19:58;6.18;;;3.20;;
70169;SDS011;57543;45.442;9.212;2023-06-10T01:23:02;6.10;;;3.05;;
70169;SDS011;57543;45.442;9.212;2023-06-10T01:26:07;6.47;;;3.22;;
70169;SDS011;57543;45.442;9.212;2023-06-10T01:29:28;7.87;;;3.17;;
70169;SDS011;57543;45.442;9.212;2023-06-10T01:32:40;6.22;;;3.20;;
70169;SDS011;57543;45.442;9.212;2023-06-10T01:35:52;6.80;;;2.88;;
70169;SDS011;57543;45.442;9.212;2023-06-10T01:38:57;6.28;;;2.97;;
70169;SDS011;57543;45.442;9.212;2023-06-10T01:42:02;6.28;;;3.15;;
70169;SDS011;57543;45.442;9.212;2023-06-10T01:45:08;6.57;;;3.10;;
70169;SDS011;57543;45.442;9.212;2023-06-10T01:48:11;7.88;;;3.50;;
70169;SDS011;57543;45.442;9.212;2023-06-10T01:51:15;7.22;;;3.90;;
70169;SDS011;57543;45.442;9.212;2023-06-10T01:54:19;7.97;;;3.80;;
70169;SDS011;57543;45.442;9.212;2023-06-10T01:57:23;7.70;;;3.85;;
70169;SDS011;57543;45.442;9.212;2023-06-10T02:00:26;9.97;;;4.57;;
70169;SDS011;57543;45.442;9.212;2023-06-10T02:03:30;7.45;;;3.55;;
70169;SDS011;57543;45.442;9.212;2023-06-10T02:06:33;8.98;;;4.15;;
70169;SDS011;57543;45.442;9.212;2023-06-10T02:09:39;7.72;;;3.85;;
70169;SDS011;57543;45.442;9.212;2023-06-10T02:12:42;8.52;;;3.63;;
70169;SDS011;57543;45.442;9.212;2023-06-10T02:15:46;6.40;;;3.40;;
70169;SDS011;57543;45.442;9.212;2023-06-10T02:18:50;10.10;;;3.75;;
70169;SDS011;57543;45.442;9.212;2023-06-10T02:21:53;6.40;;;3.42;;
70169;SDS011;57543;45.442;9.212;2023-06-10T02:24:57;9.77;;;4.50;;
70169;SDS011;57543;45.442;9.212;2023-06-10T02:28:01;9.15;;;4.10;;
70169;SDS011;57543;45.442;9.212;2023-06-10T02:31:07;7.70;;;3.80;;
70169;SDS011;57543;45.442;9.212;2023-06-10T02:34:10;7.95;;;3.90;;
70169;SDS011;57543;45.442;9.212;2023-06-10T02:37:15;7.90;;;3.83;;
70169;SDS011;57543;45.442;9.212;2023-06-10T02:40:18;8.32;;;3.67;;
70169;SDS011;57543;45.442;9.212;2023-06-10T02:43:22;11.40;;;3.95;;
70169;SDS011;57543;45.442;9.212;2023-06-10T02:46:26;8.40;;;3.70;;
70169;SDS011;57543;45.442;9.212;2023-06-10T02:49:32;9.32;;;3.50;;
70169;SDS011;57543;45.442;9.212;2023-06-10T02:52:36;8.95;;;3.60;;
70169;SDS011;57543;45.442;9.212;2023-06-10T02:55:40;6.57;;;3.47;;
70169;SDS011;57543;45.442;9.212;2023-06-10T02:58:47;7.07;;;3.38;;
70169;SDS011;57543;45.442;9.212;2023-06-10T03:01:53;8.47;;;3.60;;
70169;SDS011;57543;45.442;9.212;2023-06-10T03:04:57;7.95;;;3.60;;
70169;SDS011;57543;45.442;9.212;2023-06-10T03:08:01;6.53;;;3.47;;
70169;SDS011;57543;45.442;9.212;2023-06-10T03:11:07;7.80;;;3.60;;
70169;SDS011;57543;45.442;9.212;2023-06-10T03:14:12;8.18;;;3.85;;
70169;SDS011;57543;45.442;9.212;2023-06-10T03:17:16;7.83;;;3.90;;
70169;SDS011;57543;45.442;9.212;2023-06-10T03:20:21;6.75;;;3.53;;
70169;SDS011;57543;45.442;9.212;2023-06-10T03:23:26;5.93;;;3.33;;
70169;SDS011;57543;45.442;9.212;2023-06-10T03:26:31;7.72;;;3.60;;
70169;SDS011;57543;45.442;9.212;2023-06-10T03:29:35;7.78;;;3.92;;
70169;SDS011;57543;45.442;9.212;2023-06-10T03:32:40;6.33;;;3.83;;
70169;SDS011;57543;45.442;9.212;2023-06-10T03:35:45;8.70;;;3.95;;
70169;SDS011;57543;45.442;9.212;2023-06-10T03:38:52;8.52;;;3.83;;
70169;SDS011;57543;45.442;9.212;2023-06-10T03:41:58;7.38;;;4.20;;
70169;SDS011;57543;45.442;9.212;2023-06-10T03:45:03;7.05;;;3.60;;
70169;SDS011;57543;45.442;9.212;2023-06-10T03:48:10;6.67;;;3.60;;
70169;SDS011;57543;45.442;9.212;2023-06-10T03:51:27;8.15;;;3.58;;
70169;SDS011;57543;45.442;9.212;2023-06-10T03:54:31;7.82;;;3.80;;
70169;SDS011;57543;45.442;9.212;2023-06-10T03:57:35;7.18;;;3.70;;
70169;SDS011;57543;45.442;9.212;2023-06-10T04:00:38;7.15;;;3.28;;
70169;SDS011;57543;45.442;9.212;2023-06-10T04:03:44;7.00;;;3.90;;
70169;SDS011;57543;45.442;9.212;2023-06-10T04:06:47;9.18;;;4.10;;
70169;SDS011;57543;45.442;9.212;2023-06-10T04:09:52;10.07;;;3.83;;
70169;SDS011;57543;45.442;9.212;2023-06-10T04:12:56;8.80;;;4.15;;
70169;SDS011;57543;45.442;9.212;2023-06-10T04:16:03;9.18;;;4.05;;
70169;SDS011;57543;45.442;9.212;2023-06-10T04:19:07;7.67;;;3.60;;
70169;SDS011;57543;45.442;9.212;2023-06-10T04:22:10;6.15;;;3.22;;
70169;SDS011;57543;45.442;9.212;2023-06-10T04:25:14;6.65;;;3.47;;
70169;SDS011;57543;45.442;9.212;2023-06-10T04:28:19;7.50;;;3.28;;
70169;SDS011;57543;45.442;9.212;2023-06-10T04:31:24;6.38;;;3.20;;
70169;SDS011;57543;45.442;9.212;2023-06-10T04:34:28;6.70;;;3.30;;
70169;SDS011;57543;45.442;9.212;2023-06-10T04:37:32;5.78;;;3.30;;
70169;SDS011;57543;45.442;9.212;2023-06-10T04:40:35;6.38;;;3.20;;
70169;SDS011;57543;45.442;9.212;2023-06-10T04:43:40;8.82;;;3.45;;
70169;SDS011;57543;45.442;9.212;2023-06-10T04:46:44;6.95;;;3.40;;
70169;SDS011;57543;45.442;9.212;2023-06-10T04:49:48;6.40;;;3.10;;
70169;SDS011;57543;45.442;9.212;2023-06-10T04:52:51;5.70;;;3.00;;
70169;SDS011;57543;45.442;9.212;2023-06-10T04:55:56;7.32;;;3.10;;
70169;SDS011;57543;45.442;9.212;2023-06-10T04:59:00;10.18;;;3.75;;
70169;SDS011;57543;45.442;9.212;2023-06-10T05:02:07;9.27;;;3.90;;
70169;SDS011;57543;45.442;9.212;2023-06-10T05:05:11;8.23;;;3.27;;
70169;SDS011;57543;45.442;9.212;2023-06-10T05:08:14;10.13;;;3.63;;
70169;SDS011;57543;45.442;9.212;2023-06-10T05:11:17;8.57;;;3.95;;
70169;SDS011;57543;45.442;9.212;2023-06-10T05:14:20;7.93;;;3.88;;
70169;SDS011;57543;45.442;9.212;2023-06-10T05:17:24;9.32;;;3.83;;
70169;SDS011;57543;45.442;9.212;2023-06-10T05:20:28;6.23;;;3.73;;
70169;SDS011;57543;45.442;9.212;2023-06-10T05:23:32;7.30;;;4.10;;
70169;SDS011;57543;45.442;9.212;2023-06-10T05:26:36;6.78;;;3.58;;
70169;SDS011;57543;45.442;9.212;2023-06-10T05:29:41;7.38;;;3.60;;
70169;SDS011;57543;45.442;9.212;2023-06-10T05:32:44;6.15;;;3.78;;
70169;SDS011;57543;45.442;9.212;2023-06-10T05:35:47;8.23;;;4.10;;
70169;SDS011;57543;45.442;9.212;2023-06-10T05:38:51;8.25;;;3.72;;
70169;SDS011;57543;45.442;9.212;2023-06-10T05:41:54;8.85;;;4.05;;
70169;SDS011;57543;45.442;9.212;2023-06-10T05:44:58;8.18;;;4.05;;
70169;SDS011;57543;45.442;9.212;2023-06-10T05:48:01;6.65;;;3.50;;
70169;SDS011;57543;45.442;9.212;2023-06-10T05:51:05;7.07;;;3.93;;
70169;SDS011;57543;45.442;9.212;2023-06-10T05:54:09;8.32;;;4.65;;
70169;SDS011;57543;45.442;9.212;2023-06-10T05:57:12;7.82;;;3.72;;
70169;SDS011;57543;45.442;9.212;2023-06-10T06:00:16;7.15;;;3.78;;
70169;SDS011;57543;45.442;9.212;2023-06-10T06:03:20;7.05;;;3.70;;
70169;SDS011;57543;45.442;9.212;2023-06-10T06:06:23;7.97;;;4.00;;
70169;SDS011;57543;45.442;9.212;2023-06-10T06:09:27;7.90;;;3.55;;
70169;SDS011;57543;45.442;9.212;2023-06-10T06:12:30;10.00;;;3.95;;
70169;SDS011;57543;45.442;9.212;2023-06-10T06:15:33;6.68;;;3.80;;
70169;SDS011;57543;45.442;9.212;2023-06-10T06:18:37;8.18;;;4.22;;
70169;SDS011;57543;45.442;9.212;2023-06-10T06:21:40;5.60;;;3.70;;
70169;SDS011;57543;45.442;9.212;2023-06-10T06:24:43;7.25;;;4.20;;
70169;SDS011;57543;45.442;9.212;2023-06-10T06:27:47;7.15;;;3.80;;
70169;SDS011;57543;45.442;9.212;2023-06-10T06:30:50;7.10;;;3.70;;
70169;SDS011;57543;45.442;9.212;2023-06-10T06:33:54;7.53;;;3.70;;
70169;SDS011;57543;45.442;9.212;2023-06-10T06:36:58;7.93;;;3.70;;
70169;SDS011;57543;45.442;9.212;2023-06-10T06:40:02;11.02;;;4.40;;
70169;SDS011;57543;45.442;9.212;2023-06-10T06:43:07;8.90;;;3.83;;
70169;SDS011;57543;45.442;9.212;2023-06-10T06:46:39;10.77;;;4.22;;
70169;SDS011;57543;45.442;9.212;2023-06-10T06:49:43;6.65;;;4.00;;
70169;SDS011;57543;45.442;9.212;2023-06-10T06:52:47;7.73;;;4.00;;
70169;SDS011;57543;45.442;9.212;2023-06-10T06:55:51;7.32;;;4.00;;
70169;SDS011;57543;45.442;9.212;2023-06-10T06:58:54;7.65;;;4.35;;
70169;SDS011;57543;45.442;9.212;2023-06-10T07:01:58;8.63;;;3.70;;
70169;SDS011;57543;45.442;9.212;2023-06-10T07:05:02;7.65;;;3.88;;
70169;SDS011;57543;45.442;9.212;2023-06-10T07:08:06;9.33;;;4.03;;
70169;SDS011;57543;45.442;9.212;2023-06-10T07:11:10;7.30;;;4.15;;
70169;SDS011;57543;45.442;9.212;2023-06-10T07:14:14;9.05;;;4.18;;
70169;SDS011;57543;45.442;9.212;2023-06-10T07:17:18;9.27;;;4.80;;
70169;SDS011;57543;45.442;9.212;2023-06-10T07:20:21;7.18;;;3.70;;
70169;SDS011;57543;45.442;9.212;2023-06-10T07:23:25;8.40;;;4.23;;
70169;SDS011;57543;45.442;9.212;2023-06-10T07:26:29;10.15;;;4.07;;
70169;SDS011;57543;45.442;9.212;2023-06-10T07:29:33;7.30;;;3.72;;
70169;SDS011;57543;45.442;9.212;2023-06-10T07:32:36;5.53;;;3.50;;
70169;SDS011;57543;45.442;9.212;2023-06-10T07:35:39;9.02;;;4.13;;
70169;SDS011;57543;45.442;9.212;2023-06-10T07:38:43;9.33;;;4.63;;
70169;SDS011;57543;45.442;9.212;2023-06-10T07:41:46;9.18;;;4.18;;
70169;SDS011;57543;45.442;9.212;2023-06-10T07:44:52;9.25;;;4.40;;
70169;SDS011;57543;45.442;9.212;2023-06-10T07:47:56;10.30;;;4.32;;
70169;SDS011;57543;45.442;9.212;2023-06-10T07:50:59;8.60;;;4.38;;
70169;SDS011;57543;45.442;9.212;2023-06-10T07:54:03;10.23;;;4.23;;
70169;SDS011;57543;45.442;9.212;2023-06-10T07:57:07;7.70;;;4.43;;
70169;SDS011;57543;45.442;9.212;2023-06-10T08:00:11;8.27;;;4.30;;
70169;SDS011;57543;45.442;9.212;2023-06-10T08:03:17;8.48;;;4.22;;
70169;SDS011;57543;45.442;9.212;2023-06-10T08:06:21;8.70;;;4.35;;
70169;SDS011;57543;45.442;9.212;2023-06-10T08:09:25;8.30;;;4.53;;
70169;SDS011;57543;45.442;9.212;2023-06-10T08:12:28;6.80;;;4.05;;
70169;SDS011;57543;45.442;9.212;2023-06-10T08:15:32;9.25;;;5.45;;
70169;SDS011;57543;45.442;9.212;2023-06-10T08:18:36;11.43;;;5.90;;
70169;SDS011;57543;45.442;9.212;2023-06-10T08:21:39;9.50;;;4.90;;
70169;SDS011;57543;45.442;9.212;2023-06-10T08:24:43;11.63;;;5.67;;
70169;SDS011;57543;45.442;9.212;2023-06-10T08:27:47;13.23;;;5.78;;
70169;SDS011;57543;45.442;9.212;2023-06-10T08:30:51;10.57;;;4.90;;
70169;SDS011;57543;45.442;9.212;2023-06-10T08:33:54;9.98;;;4.93;;
70169;SDS011;57543;45.442;9.212;2023-06-10T08:36:58;9.35;;;5.13;;
70169;SDS011;57543;45.442;9.212;2023-06-10T08:40:02;11.83;;;6.30;;
70169;SDS011;57543;45.442;9.212;2023-06-10T08:43:08;10.13;;;5.95;;
70169;SDS011;57543;45.442;9.212;2023-06-10T08:46:20;11.48;;;6.00;;
70169;SDS011;57543;45.442;9.212;2023-06-10T08:49:24;12.05;;;6.00;;
70169;SDS011;57543;45.442;9.212;2023-06-10T08:52:34;12.88;;;6.50;;
70169;SDS011;57543;45.442;9.212;2023-06-10T08:55:41;8.37;;;4.70;;
70169;SDS011;57543;45.442;9.212;2023-06-10T08:58:45;11.63;;;6.32;;
70169;SDS011;57543;45.442;9.212;2023-06-10T09:01:51;9.57;;;5.40;;
70169;SDS011;57543;45.442;9.212;2023-06-10T09:04:56;11.30;;;6.50;;
70169;SDS011;57543;45.442;9.212;2023-06-10T09:08:04;11.07;;;5.90;;
70169;SDS011;57543;45.442;9.212;2023-06-10T09:11:09;11.77;;;5.90;;
70169;SDS011;57543;45.442;9.212;2023-06-10T09:14:13;11.82;;;5.55;;
70169;SDS011;57543;45.442;9.212;2023-06-10T09:17:16;9.77;;;5.13;;
70169;SDS011;57543;45.442;9.212;2023-06-10T09:20:20;11.98;;;6.05;;
70169;SDS011;57543;45.442;9.212;2023-06-10T09:23:24;10.00;;;4.65;;
70169;SDS011;57543;45.442;9.212;2023-06-10T09:26:29;8.90;;;4.43;;
70169;SDS011;57543;45.442;9.212;2023-06-10T09:32:51;11.40;;;4.70;;
70169;SDS011;57543;45.442;9.212;2023-06-10T09:35:55;8.23;;;3.53;;
70169;SDS011;57543;45.442;9.212;2023-06-10T09:39:04;10.18;;;4.30;;
70169;SDS011;57543;45.442;9.212;2023-06-10T09:42:18;8.57;;;4.07;;
70169;SDS011;57543;45.442;9.212;2023-06-10T09:45:22;9.55;;;4.75;;
70169;SDS011;57543;45.442;9.212;2023-06-10T09:48:26;10.70;;;4.65;;
70169;SDS011;57543;45.442;9.212;2023-06-10T09:51:29;9.55;;;3.80;;
70169;SDS011;57543;45.442;9.212;2023-06-10T09:54:33;11.77;;;4.20;;
70169;SDS011;57543;45.442;9.212;2023-06-10T09:57:38;9.93;;;3.80;;
70169;SDS011;57543;45.442;9.212;2023-06-10T10:00:43;8.23;;;3.92;;
70169;SDS011;57543;45.442;9.212;2023-06-10T10:03:55;8.35;;;3.80;;
70169;SDS011;57543;45.442;9.212;2023-06-10T10:06:59;6.95;;;3.92;;
70169;SDS011;57543;45.442;9.212;2023-06-10T10:10:03;8.20;;;3.50;;
70169;SDS011;57543;45.442;9.212;2023-06-10T10:13:06;10.33;;;4.43;;
70169;SDS011;57543;45.442;9.212;2023-06-10T10:16:11;8.45;;;4.60;;
70169;SDS011;57543;45.442;9.212;2023-06-10T10:19:20;8.68;;;3.80;;
70169;SDS011;57543;45.442;9.212;2023-06-10T10:22:43;7.45;;;4.03;;
70169;SDS011;57543;45.442;9.212;2023-06-10T10:25:51;9.10;;;4.40;;
70169;SDS011;57543;45.442;9.212;2023-06-10T10:29:05;8.53;;;3.80;;
70169;SDS011;57543;45.442;9.212;2023-06-10T10:32:14;6.40;;;3.63;;
70169;SDS011;57543;45.442;9.212;2023-06-10T10:35:20;6.72;;;3.20;;
70169;SDS011;57543;45.442;9.212;2023-06-10T10:38:26;7.35;;;3.70;;
70169;SDS011;57543;45.442;9.212;2023-06-10T10:41:31;8.00;;;3.75;;
70169;SDS011;57543;45.442;9.212;2023-06-10T10:44:37;9.87;;;3.50;;
70169;SDS011;57543;45.442;9.212;2023-06-10T10:47:42;6.80;;;3.30;;
70169;SDS011;57543;45.442;9.212;2023-06-10T10:50:55;8.73;;;3.63;;
70169;SDS011;57543;45.442;9.212;2023-06-10T10:54:09;6.82;;;3.50;;
70169;SDS011;57543;45.442;9.212;2023-06-10T10:57:17;8.93;;;3.30;;
70169;SDS011;57543;45.442;9.212;2023-06-10T11:00:27;8.57;;;3.67;;
70169;SDS011;57543;45.442;9.212;2023-06-10T11:03:30;7.32;;;3.33;;
70169;SDS011;57543;45.442;9.212;2023-06-10T11:06:52;8.05;;;3.67;;
70169;SDS011;57543;45.442;9.212;2023-06-10T11:13:09;6.10;;;3.30;;
70169;SDS011;57543;45.442;9.212;2023-06-10T11:16:19;7.97;;;3.20;;
70169;SDS011;57543;45.442;9.212;2023-06-10T11:19:32;7.57;;;3.10;;
70169;SDS011;57543;45.442;9.212;2023-06-10T11:22:57;7.60;;;3.15;;
70169;SDS011;57543;45.442;9.212;2023-06-10T11:26:11;7.03;;;3.25;;
70169;SDS011;57543;45.442;9.212;2023-06-10T11:29:29;6.75;;;3.10;;
70169;SDS011;57543;45.442;9.212;2023-06-10T11:32:33;5.97;;;3.10;;
70169;SDS011;57543;45.442;9.212;2023-06-10T11:35:37;6.93;;;3.55;;
70169;SDS011;57543;45.442;9.212;2023-06-10T11:38:43;6.90;;;2.72;;
70169;SDS011;57543;45.442;9.212;2023-06-10T11:41:48;7.13;;;3.10;;
70169;SDS011;57543;45.442;9.212;2023-06-10T11:44:53;8.10;;;3.30;;
70169;SDS011;57543;45.442;9.212;2023-06-10T11:47:58;9.33;;;3.17;;
70169;SDS011;57543;45.442;9.212;2023-06-10T11:51:08;7.85;;;3.10;;
70169;SDS011;57543;45.442;9.212;2023-06-10T11:54:12;7.97;;;3.20;;
70169;SDS011;57543;45.442;9.212;2023-06-10T11:57:15;6.10;;;2.90;;
70169;SDS011;57543;45.442;9.212;2023-06-10T12:00:19;5.25;;;2.83;;
70169;SDS011;57543;45.442;9.212;2023-06-10T12:03:24;7.37;;;3.27;;
70169;SDS011;57543;45.442;9.212;2023-06-10T12:06:37;8.10;;;3.17;;
70169;SDS011;57543;45.442;9.212;2023-06-10T12:09:59;8.02;;;3.22;;
70169;SDS011;57543;45.442;9.212;2023-06-10T12:13:04;5.85;;;3.20;;
70169;SDS011;57543;45.442;9.212;2023-06-10T12:16:08;6.95;;;3.40;;
70169;SDS011;57543;45.442;9.212;2023-06-10T12:19:12;5.33;;;3.20;;
70169;SDS011;57543;45.442;9.212;2023-06-10T12:22:15;6.88;;;3.03;;
70169;SDS011;57543;45.442;9.212;2023-06-10T12:25:24;5.13;;;2.80;;
70169;SDS011;57543;45.442;9.212;2023-06-10T12:28:29;6.75;;;2.85;;
70169;SDS011;57543;45.442;9.212;2023-06-10T12:31:33;6.30;;;3.50;;
70169;SDS011;57543;45.442;9.212;2023-06-10T12:35:02;6.93;;;3.37;;
70169;SDS011;57543;45.442;9.212;2023-06-10T12:38:07;7.97;;;3.10;;
70169;SDS011;57543;45.442;9.212;2023-06-10T12:41:13;5.57;;;3.10;;
70169;SDS011;57543;45.442;9.212;2023-06-10T12:44:17;8.02;;;3.08;;
70169;SDS011;57543;45.442;9.212;2023-06-10T12:47:21;7.35;;;3.00;;
70169;SDS011;57543;45.442;9.212;2023-06-10T12:50:39;6.57;;;3.20;;
70169;SDS011;57543;45.442;9.212;2023-06-10T12:53:44;7.80;;;3.60;;
70169;SDS011;57543;45.442;9.212;2023-06-10T12:56:47;7.90;;;3.10;;
70169;SDS011;57543;45.442;9.212;2023-06-10T12:59:51;8.95;;;3.30;;
70169;SDS011;57543;45.442;9.212;2023-06-10T13:03:00;5.15;;;3.03;;
70169;SDS011;57543;45.442;9.212;2023-06-10T13:06:05;6.80;;;3.07;;
70169;SDS011;57543;45.442;9.212;2023-06-10T13:09:09;6.55;;;3.30;;
70169;SDS011;57543;45.442;9.212;2023-06-10T13:12:13;6.20;;;3.40;;
70169;SDS011;57543;45.442;9.212;2023-06-10T13:15:17;6.95;;;2.97;;
70169;SDS011;57543;45.442;9.212;2023-06-10T13:18:21;5.85;;;3.47;;
70169;SDS011;57543;45.442;9.212;2023-06-10T13:21:25;6.43;;;3.20;;
70169;SDS011;57543;45.442;9.212;2023-06-10T13:24:29;5.50;;;3.00;;
70169;SDS011;57543;45.442;9.212;2023-06-10T13:27:33;7.47;;;3.55;;
70169;SDS011;57543;45.442;9.212;2023-06-10T13:30:37;7.82;;;3.83;;
70169;SDS011;57543;45.442;9.212;2023-06-10T13:33:41;6.22;;;3.80;;
70169;SDS011;57543;45.442;9.212;2023-06-10T13:36:46;7.73;;;3.90;;
70169;SDS011;57543;45.442;9.212;2023-06-10T13:39:50;6.60;;;4.15;;
70169;SDS011;57543;45.442;9.212;2023-06-10T13:42:54;8.13;;;3.92;;
70169;SDS011;57543;45.442;9.212;2023-06-10T13:45:57;8.07;;;3.95;;
70169;SDS011;57543;45.442;9.212;2023-06-10T13:49:01;8.13;;;4.43;;
70169;SDS011;57543;45.442;9.212;2023-06-10T13:52:05;7.50;;;4.67;;
70169;SDS011;57543;45.442;9.212;2023-06-10T13:55:09;7.15;;;4.38;;
70169;SDS011;57543;45.442;9.212;2023-06-10T13:58:12;6.82;;;4.32;;
70169;SDS011;57543;45.442;9.212;2023-06-10T14:01:16;7.32;;;4.15;;
70169;SDS011;57543;45.442;9.212;2023-06-10T14:04:20;7.68;;;4.10;;
70169;SDS011;57543;45.442;9.212;2023-06-10T14:07:24;7.83;;;4.20;;
70169;SDS011;57543;45.442;9.212;2023-06-10T14:10:29;8.23;;;4.45;;
70169;SDS011;57543;45.442;9.212;2023-06-10T14:13:32;6.97;;;4.50;;
70169;SDS011;57543;45.442;9.212;2023-06-10T14:16:37;7.28;;;4.10;;
70169;SDS011;57543;45.442;9.212;2023-06-10T14:19:40;7.15;;;3.95;;
70169;SDS011;57543;45.442;9.212;2023-06-10T14:22:44;7.53;;;3.70;;
70169;SDS011;57543;45.442;9.212;2023-06-10T14:25:47;7.43;;;4.10;;
70169;SDS011;57543;45.442;9.212;2023-06-10T14:28:51;6.90;;;4.40;;
70169;SDS011;57543;45.442;9.212;2023-06-10T14:31:55;9.38;;;4.03;;
70169;SDS011;57543;45.442;9.212;2023-06-10T14:34:59;7.82;;;4.50;;
70169;SDS011;57543;45.442;9.212;2023-06-10T14:38:02;6.13;;;4.00;;
70169;SDS011;57543;45.442;9.212;2023-06-10T14:41:05;8.65;;;4.68;;
70169;SDS011;57543;45.442;9.212;2023-06-10T14:44:09;6.75;;;4.47;;
70169;SDS011;57543;45.442;9.212;2023-06-10T14:47:13;7.28;;;4.10;;
70169;SDS011;57543;45.442;9.212;2023-06-10T14:50:23;8.70;;;4.80;;
70169;SDS011;57543;45.442;9.212;2023-06-10T14:53:27;9.47;;;4.50;;
70169;SDS011;57543;45.442;9.212;2023-06-10T14:56:30;7.03;;;4.72;;
70169;SDS011;57543;45.442;9.212;2023-06-10T14:59:34;9.07;;;5.30;;
70169;SDS011;57543;45.442;9.212;2023-06-10T15:02:38;9.27;;;4.80;;
70169;SDS011;57543;45.442;9.212;2023-06-10T15:05:42;9.40;;;6.22;;
70169;SDS011;57543;45.442;9.212;2023-06-10T15:08:46;7.63;;;4.80;;
70169;SDS011;57543;45.442;9.212;2023-06-10T15:11:51;8.32;;;4.60;;
70169;SDS011;57543;45.442;9.212;2023-06-10T15:14:55;7.28;;;4.85;;
70169;SDS011;57543;45.442;9.212;2023-06-10T15:17:58;8.02;;;4.65;;
70169;SDS011;57543;45.442;9.212;2023-06-10T15:21:02;7.13;;;4.40;;
70169;SDS011;57543;45.442;9.212;2023-06-10T15:24:06;6.47;;;4.40;;
70169;SDS011;57543;45.442;9.212;2023-06-10T15:27:10;9.05;;;4.63;;
70169;SDS011;57543;45.442;9.212;2023-06-10T15:30:14;9.43;;;5.00;;
70169;SDS011;57543;45.442;9.212;2023-06-10T15:33:18;8.30;;;5.00;;
70169;SDS011;57543;45.442;9.212;2023-06-10T15:36:21;9.68;;;5.35;;
70169;SDS011;57543;45.442;9.212;2023-06-10T15:39:24;7.07;;;4.77;;
70169;SDS011;57543;45.442;9.212;2023-06-10T15:42:30;9.10;;;5.38;;
70169;SDS011;57543;45.442;9.212;2023-06-10T15:45:33;8.10;;;4.80;;
70169;SDS011;57543;45.442;9.212;2023-06-10T15:48:37;7.68;;;4.53;;
70169;SDS011;57543;45.442;9.212;2023-06-10T15:51:40;6.57;;;5.25;;
70169;SDS011;57543;45.442;9.212;2023-06-10T15:54:44;7.47;;;4.50;;
70169;SDS011;57543;45.442;9.212;2023-06-10T15:57:47;6.68;;;4.43;;
70169;SDS011;57543;45.442;9.212;2023-06-10T16:00:50;7.38;;;5.20;;
70169;SDS011;57543;45.442;9.212;2023-06-10T16:03:53;7.00;;;4.82;;
70169;SDS011;57543;45.442;9.212;2023-06-10T16:06:58;8.13;;;4.82;;
70169;SDS011;57543;45.442;9.212;2023-06-10T16:10:01;7.60;;;4.37;;
70169;SDS011;57543;45.442;9.212;2023-06-10T16:13:05;8.75;;;4.82;;
70169;SDS011;57543;45.442;9.212;2023-06-10T16:16:10;9.38;;;4.82;;
70169;SDS011;57543;45.442;9.212;2023-06-10T16:19:14;7.47;;;4.40;;
70169;SDS011;57543;45.442;9.212;2023-06-10T16:22:17;7.68;;;4.72;;
70169;SDS011;57543;45.442;9.212;2023-06-10T16:25:21;8.03;;;4.60;;
70169;SDS011;57543;45.442;9.212;2023-06-10T16:28:24;6.90;;;4.32;;
70169;SDS011;57543;45.442;9.212;2023-06-10T16:31:28;8.18;;;4.70;;
70169;SDS011;57543;45.442;9.212;2023-06-10T16:34:32;9.52;;;4.70;;
70169;SDS011;57543;45.442;9.212;2023-06-10T16:37:35;8.30;;;5.18;;
70169;SDS011;57543;45.442;9.212;2023-06-10T16:40:39;7.37;;;4.10;;
70169;SDS011;57543;45.442;9.212;2023-06-10T16:43:43;7.50;;;4.32;;
70169;SDS011;57543;45.442;9.212;2023-06-10T16:46:46;8.18;;;4.40;;
70169;SDS011;57543;45.442;9.212;2023-06-10T16:49:50;7.32;;;4.63;;
70169;SDS011;57543;45.442;9.212;2023-06-10T16:52:54;7.95;;;4.25;;
70169;SDS011;57543;45.442;9.212;2023-06-10T16:55:57;7.90;;;4.33;;
70169;SDS011;57543;45.442;9.212;2023-06-10T16:59:01;6.30;;;4.45;;
70169;SDS011;57543;45.442;9.212;2023-06-10T17:02:05;7.68;;;4.60;;
70169;SDS011;57543;45.442;9.212;2023-06-10T17:05:09;9.02;;;4.43;;
70169;SDS011;57543;45.442;9.212;2023-06-10T17:08:12;6.68;;;4.10;;
70169;SDS011;57543;45.442;9.212;2023-06-10T17:11:16;7.80;;;4.53;;
70169;SDS011;57543;45.442;9.212;2023-06-10T17:14:20;5.85;;;3.97;;
70169;SDS011;57543;45.442;9.212;2023-06-10T17:17:26;6.95;;;4.05;;
70169;SDS011;57543;45.442;9.212;2023-06-10T17:20:30;6.40;;;3.90;;
70169;SDS011;57543;45.442;9.212;2023-06-10T17:23:34;7.10;;;3.80;;
70169;SDS011;57543;45.442;9.212;2023-06-10T17:26:37;6.87;;;3.83;;
70169;SDS011;57543;45.442;9.212;2023-06-10T17:29:41;5.80;;;4.03;;
70169;SDS011;57543;45.442;9.212;2023-06-10T17:32:44;7.60;;;3.83;;
70169;SDS011;57543;45.442;9.212;2023-06-10T17:35:47;6.78;;;4.25;;
70169;SDS011;57543;45.442;9.212;2023-06-10T17:38:52;7.65;;;3.97;;
70169;SDS011;57543;45.442;9.212;2023-06-10T17:41:55;6.70;;;4.40;;
70169;SDS011;57543;45.442;9.212;2023-06-10T17:44:59;5.78;;;4.38;;
70169;SDS011;57543;45.442;9.212;2023-06-10T17:48:03;6.15;;;3.80;;
70169;SDS011;57543;45.442;9.212;2023-06-10T17:51:06;8.48;;;4.15;;
70169;SDS011;57543;45.442;9.212;2023-06-10T17:54:10;6.30;;;4.07;;
70169;SDS011;57543;45.442;9.212;2023-06-10T17:57:14;6.13;;;4.30;;
70169;SDS011;57543;45.442;9.212;2023-06-10T18:00:18;6.63;;;4.18;;
70169;SDS011;57543;45.442;9.212;2023-06-10T18:03:22;6.50;;;4.15;;
70169;SDS011;57543;45.442;9.212;2023-06-10T18:06:30;7.15;;;4.43;;
70169;SDS011;57543;45.442;9.212;2023-06-10T18:09:34;7.25;;;4.20;;
70169;SDS011;57543;45.442;9.212;2023-06-10T18:12:38;6.27;;;4.20;;
70169;SDS011;57543;45.442;9.212;2023-06-10T18:15:42;7.22;;;4.68;;
70169;SDS011;57543;45.442;9.212;2023-06-10T18:18:45;5.88;;;3.83;;
70169;SDS011;57543;45.442;9.212;2023-06-10T18:21:50;7.30;;;4.03;;
70169;SDS011;57543;45.442;9.212;2023-06-10T18:24:54;7.15;;;4.18;;
70169;SDS011;57543;45.442;9.212;2023-06-10T18:27:58;7.33;;;4.43;;
70169;SDS011;57543;45.442;9.212;2023-06-10T18:31:01;6.75;;;4.53;;
70169;SDS011;57543;45.442;9.212;2023-06-10T18:34:05;5.82;;;4.25;;
70169;SDS011;57543;45.442;9.212;2023-06-10T18:37:08;6.43;;;3.85;;
70169;SDS011;57543;45.442;9.212;2023-06-10T18:40:13;7.43;;;4.75;;
70169;SDS011;57543;45.442;9.212;2023-06-10T18:43:17;6.60;;;3.87;;